createdAt,value
2022-12-24T00:02:16.814Z,68.50
2022-12-24T00:04:45.820Z,68.60
2022-12-24T00:07:14.802Z,68.70
2022-12-24T00:09:43.718Z,68.70
2022-12-24T00:12:12.776Z,68.70
2022-12-24T00:14:41.911Z,69.00
2022-12-24T00:17:12.448Z,69.20
2022-12-24T00:19:43.434Z,69.40
2022-12-24T00:22:12.583Z,69.50
2022-12-24T00:24:41.690Z,69.50
2022-12-24T00:27:11.006Z,69.60
2022-12-24T00:29:58.730Z,69.70
2022-12-24T00:32:29.276Z,69.70
2022-12-24T00:34:58.269Z,69.80
2022-12-24T00:37:27.266Z,69.80
2022-12-24T00:39:56.278Z,69.60
2022-12-24T00:42:25.369Z,69.80
2022-12-24T00:44:54.342Z,70.00
2022-12-24T00:47:23.391Z,70.10
2022-12-24T00:50:12.737Z,70.20
2022-12-24T00:52:41.897Z,70.30
2022-12-24T00:55:11.695Z,70.40
2022-12-24T00:57:40.690Z,70.50
2022-12-24T01:00:11.124Z,70.60
2022-12-24T01:02:40.393Z,70.70
2022-12-24T01:05:13.725Z,70.60
2022-12-24T01:07:45.888Z,70.80
2022-12-24T01:10:20.975Z,70.90
2022-12-24T01:12:50.168Z,70.90
2022-12-24T01:15:19.215Z,71.00
2022-12-24T01:17:48.361Z,71.00
2022-12-24T01:20:18.828Z,70.80
2022-12-24T01:22:50.232Z,70.90
2022-12-24T01:25:19.591Z,70.80
2022-12-24T01:27:48.635Z,70.80
2022-12-24T01:30:17.858Z,70.90
2022-12-24T01:32:46.967Z,70.70
2022-12-24T01:35:15.980Z,70.70
2022-12-24T01:37:45.481Z,70.70
2022-12-24T01:40:35.587Z,70.60
2022-12-24T01:43:25.116Z,70.70
2022-12-24T01:45:55.840Z,70.60
2022-12-24T01:48:37.408Z,70.80
2022-12-24T01:51:13.324Z,71.00
2022-12-24T01:53:45.802Z,71.20
2022-12-24T01:56:16.932Z,71.20
2022-12-24T01:58:52.477Z,71.40
2022-12-24T02:01:21.711Z,71.50
2022-12-24T02:03:51.226Z,71.70
2022-12-24T02:06:22.315Z,71.90
2022-12-24T02:08:51.534Z,72.10
2022-12-24T02:11:23.882Z,72.30
2022-12-24T02:14:00.181Z,72.40
2022-12-24T02:16:43.780Z,72.40
2022-12-24T02:19:35.630Z,72.30
2022-12-24T02:22:09.779Z,72.30
2022-12-24T02:25:04.196Z,72.10
2022-12-24T02:27:57.456Z,72.00
2022-12-24T02:30:33.078Z,72.00
2022-12-24T02:33:21.676Z,72.00
2022-12-24T02:35:55.067Z,72.00
2022-12-24T02:38:29.289Z,71.80
2022-12-24T02:41:03.440Z,71.80
2022-12-24T02:43:37.413Z,72.00
2022-12-24T02:46:11.799Z,72.10
2022-12-24T02:48:44.980Z,72.10
2022-12-24T02:51:14.333Z,71.80
2022-12-24T02:53:44.006Z,71.80
2022-12-24T02:56:44.009Z,71.50
2022-12-24T02:59:42.398Z,71.30
2022-12-24T03:02:23.864Z,71.10
2022-12-24T03:05:05.460Z,70.90
2022-12-24T03:07:38.664Z,70.70
2022-12-24T03:10:21.317Z,70.70
2022-12-24T03:12:53.845Z,70.70
2022-12-24T03:15:26.904Z,70.80
2022-12-24T03:18:01.907Z,70.90
2022-12-24T03:20:58.105Z,71.20
2022-12-24T03:23:27.211Z,71.20
2022-12-24T03:25:56.570Z,71.00
2022-12-24T03:28:29.247Z,70.90
2022-12-24T03:31:18.753Z,70.90
2022-12-24T03:33:50.249Z,70.80
2022-12-24T03:36:37.536Z,70.60
2022-12-24T03:39:07.086Z,70.50
2022-12-24T03:41:36.435Z,70.40
2022-12-24T03:44:05.669Z,70.50
2022-12-24T03:46:34.737Z,70.60
2022-12-24T03:49:05.298Z,70.60
2022-12-24T03:51:34.788Z,70.80
2022-12-24T03:54:03.698Z,70.90
2022-12-24T03:56:32.804Z,70.90
2022-12-24T03:59:01.882Z,70.80
2022-12-24T04:01:31.140Z,70.60
2022-12-24T04:04:00.258Z,70.50
2022-12-24T04:06:30.750Z,70.60
2022-12-24T04:09:02.137Z,70.60
2022-12-24T04:11:49.496Z,70.60
2022-12-24T04:14:18.609Z,70.40
2022-12-24T04:16:47.774Z,70.20
2022-12-24T04:19:16.959Z,70.40
2022-12-24T04:21:47.547Z,70.20
2022-12-24T04:24:16.718Z,70.00
2022-12-24T04:26:45.795Z,70.10
2022-12-24T04:29:15.203Z,70.10
2022-12-24T04:31:44.408Z,70.10
2022-12-24T04:34:13.394Z,70.20
2022-12-24T04:36:42.611Z,70.30
2022-12-24T04:39:31.851Z,70.40
2022-12-24T04:42:00.963Z,70.30
2022-12-24T04:44:30.123Z,70.00
2022-12-24T04:46:59.155Z,69.60
2022-12-24T04:49:28.439Z,69.50
2022-12-24T04:51:57.767Z,69.60
2022-12-24T04:54:27.044Z,69.70
2022-12-24T04:56:57.587Z,69.70
2022-12-24T04:59:26.723Z,69.70
2022-12-24T05:01:55.737Z,69.90
2022-12-24T05:04:24.828Z,70.00
2022-12-24T05:07:12.451Z,70.10
2022-12-24T05:09:42.059Z,70.40
2022-12-24T05:12:12.979Z,70.60
2022-12-24T05:14:42.824Z,70.70
2022-12-24T05:17:11.985Z,70.70
2022-12-24T05:19:40.996Z,70.70
2022-12-24T05:22:27.310Z,70.50
2022-12-24T05:25:13.600Z,70.50
2022-12-24T05:27:50.661Z,70.60
2022-12-24T05:30:20.507Z,70.60
2022-12-24T05:32:49.438Z,70.90
2022-12-24T05:35:18.468Z,70.70
2022-12-24T05:37:47.658Z,70.80
2022-12-24T05:40:16.668Z,70.80
2022-12-24T05:42:47.182Z,70.80
2022-12-24T05:45:16.277Z,70.70
2022-12-24T05:47:45.418Z,70.80
2022-12-24T05:50:15.075Z,71.00
2022-12-24T05:52:44.139Z,71.30
2022-12-24T05:55:13.135Z,71.60
2022-12-24T05:57:42.530Z,71.50
2022-12-24T06:00:13.864Z,71.60
2022-12-24T06:02:43.031Z,71.60
2022-12-24T06:05:12.091Z,71.30
2022-12-24T06:07:41.181Z,71.40
2022-12-24T06:10:11.108Z,71.50
2022-12-24T06:12:40.137Z,71.40
2022-12-24T06:15:10.422Z,71.20
2022-12-24T06:17:59.498Z,71.20
2022-12-24T06:20:28.424Z,71.30
2022-12-24T06:22:57.503Z,71.50
2022-12-24T06:25:26.371Z,71.50
2022-12-24T06:27:55.603Z,71.70
2022-12-24T06:30:24.908Z,71.90
2022-12-24T06:32:53.830Z,71.70
2022-12-24T06:35:24.190Z,71.80
2022-12-24T06:37:53.413Z,72.00
2022-12-24T06:40:22.352Z,72.30
2022-12-24T06:42:51.518Z,72.30
2022-12-24T06:45:20.629Z,72.20
2022-12-24T06:47:49.512Z,73.00
2022-12-24T06:50:18.799Z,73.10
2022-12-24T06:52:49.163Z,72.90
2022-12-24T06:55:18.467Z,73.20
2022-12-24T06:57:47.524Z,73.00
2022-12-24T07:00:17.105Z,72.70
2022-12-24T07:02:46.786Z,71.60
2022-12-24T07:05:16.623Z,70.90
2022-12-24T07:07:48.749Z,70.70
2022-12-24T07:10:36.287Z,70.80
2022-12-24T07:13:05.681Z,71.50
2022-12-24T07:15:34.993Z,73.00
2022-12-24T07:18:04.268Z,73.60
2022-12-24T07:20:33.395Z,73.60
2022-12-24T07:23:03.921Z,73.90
2022-12-24T07:25:33.075Z,72.70
2022-12-24T07:28:02.066Z,70.90
2022-12-24T07:30:31.165Z,69.60
2022-12-24T07:33:00.129Z,67.00
2022-12-24T07:35:29.209Z,65.40
2022-12-24T07:37:58.161Z,64.40
2022-12-24T07:40:28.591Z,63.50
2022-12-24T07:42:57.717Z,61.90
2022-12-24T07:45:26.984Z,60.50
2022-12-24T07:47:56.041Z,58.80
2022-12-24T07:50:25.185Z,58.80
2022-12-24T07:52:54.224Z,58.60
2022-12-24T07:55:23.246Z,58.90
2022-12-24T07:57:53.915Z,58.50
2022-12-24T08:00:23.415Z,58.60
2022-12-24T08:02:52.551Z,58.20
2022-12-24T08:05:21.682Z,57.10
2022-12-24T08:07:50.592Z,57.60
2022-12-24T08:10:19.685Z,57.40
2022-12-24T08:12:48.763Z,56.60
2022-12-24T08:15:19.539Z,55.00
2022-12-24T08:17:48.503Z,54.90
2022-12-24T08:20:17.574Z,55.10
2022-12-24T08:22:46.698Z,54.90
2022-12-24T08:25:15.980Z,54.30
2022-12-24T08:27:45.081Z,54.10
2022-12-24T08:30:20.860Z,54.90
2022-12-24T08:32:51.887Z,55.70
2022-12-24T08:35:20.931Z,55.80
2022-12-24T08:37:49.960Z,55.00
2022-12-24T08:40:19.150Z,53.90
2022-12-24T08:43:06.822Z,53.50
2022-12-24T08:45:40.268Z,53.10
2022-12-24T08:48:12.492Z,52.20
2022-12-24T08:50:43.101Z,52.10
2022-12-24T08:53:13.083Z,51.00
2022-12-24T08:55:42.591Z,51.70
2022-12-24T08:58:11.671Z,50.70
2022-12-24T09:00:40.815Z,50.10
2022-12-24T09:03:15.232Z,50.50
2022-12-24T09:05:44.357Z,50.30
2022-12-24T09:08:13.354Z,50.20
2022-12-24T09:10:42.300Z,49.80
2022-12-24T09:13:11.392Z,49.80
2022-12-24T09:15:40.938Z,50.20
2022-12-24T09:18:11.961Z,49.40
2022-12-24T09:20:46.595Z,49.00
2022-12-24T09:23:16.129Z,48.30
2022-12-24T09:25:45.264Z,48.30
2022-12-24T09:28:14.293Z,47.00
2022-12-24T09:30:43.541Z,47.60
2022-12-24T09:33:14.106Z,47.10
2022-12-24T09:35:43.164Z,46.40
2022-12-24T09:38:31.221Z,46.80
2022-12-24T09:41:08.639Z,46.70
2022-12-24T09:43:39.257Z,46.90
2022-12-24T09:46:15.378Z,46.20
2022-12-24T09:48:49.436Z,45.50
2022-12-24T09:51:26.381Z,45.70
2022-12-24T09:54:19.662Z,45.90
2022-12-24T09:56:49.826Z,45.60
2022-12-24T09:59:23.088Z,45.80
2022-12-24T10:01:55.648Z,45.70
2022-12-24T10:04:31.096Z,45.40
2022-12-24T10:07:09.059Z,45.30
2022-12-24T10:09:47.835Z,45.10
2022-12-24T10:12:22.129Z,44.90
2022-12-24T10:15:01.549Z,44.40
2022-12-24T10:17:42.897Z,44.00
2022-12-24T10:20:43.685Z,43.90
2022-12-24T10:23:19.414Z,43.60
2022-12-24T10:25:55.103Z,43.40
2022-12-24T10:28:31.535Z,43.10
2022-12-24T10:31:05.967Z,42.10
2022-12-24T10:33:39.965Z,42.50
2022-12-24T10:36:17.148Z,42.70
2022-12-24T10:38:47.008Z,42.80
2022-12-24T10:41:37.969Z,42.90
2022-12-24T10:44:07.618Z,42.20
2022-12-24T10:46:40.449Z,41.90
2022-12-24T10:49:17.137Z,42.40
2022-12-24T10:51:51.709Z,42.50
2022-12-24T10:54:27.545Z,43.40
2022-12-24T10:56:59.922Z,43.80
2022-12-24T10:59:31.450Z,44.30
2022-12-24T11:02:02.570Z,45.10
2022-12-24T11:04:33.941Z,45.60
2022-12-24T11:07:06.298Z,46.30
2022-12-24T11:09:37.919Z,46.90
2022-12-24T11:12:17.616Z,47.50
2022-12-24T11:14:47.187Z,48.00
2022-12-24T11:17:23.565Z,48.30
2022-12-24T11:19:53.045Z,48.80
2022-12-24T11:22:26.314Z,49.20
2022-12-24T11:25:05.915Z,49.80
2022-12-24T11:27:44.645Z,50.00
2022-12-24T11:30:27.107Z,50.90
2022-12-24T11:33:17.396Z,50.40
2022-12-24T11:35:49.486Z,50.70
2022-12-24T11:38:26.428Z,50.90
2022-12-24T11:41:07.938Z,51.10
2022-12-24T11:43:46.145Z,50.90
2022-12-24T11:46:20.886Z,50.90
2022-12-24T11:48:50.700Z,51.10
2022-12-24T11:51:26.069Z,51.10
2022-12-24T11:54:06.015Z,51.50
2022-12-24T11:56:39.181Z,51.60
2022-12-24T11:59:16.970Z,51.80
2022-12-24T12:01:54.345Z,51.70
2022-12-24T12:04:26.124Z,51.60
2022-12-24T12:06:58.826Z,51.50
2022-12-24T12:09:32.889Z,51.60
2022-12-24T12:12:06.637Z,51.60
2022-12-24T12:14:39.834Z,51.80
2022-12-24T12:17:30.050Z,51.70
2022-12-24T12:20:04.617Z,51.80
2022-12-24T12:22:40.568Z,51.80
2022-12-24T12:25:22.459Z,52.00
2022-12-24T12:27:54.444Z,52.10
2022-12-24T12:30:24.637Z,51.90
2022-12-24T12:33:00.954Z,51.90
2022-12-24T12:35:35.566Z,51.80
2022-12-24T12:38:09.195Z,51.70
2022-12-24T12:40:56.081Z,51.80
2022-12-24T12:43:41.054Z,51.80
2022-12-24T12:46:21.979Z,51.90
2022-12-24T12:49:08.472Z,51.50
2022-12-24T12:51:44.676Z,51.80
2022-12-24T12:54:34.252Z,51.80
2022-12-24T12:57:10.125Z,51.50
2022-12-24T12:59:43.567Z,51.50
2022-12-24T13:02:37.780Z,51.50
2022-12-24T13:05:40.216Z,51.40
2022-12-24T13:08:38.934Z,51.40
2022-12-24T13:11:30.632Z,51.40
2022-12-24T13:14:20.900Z,51.50
2022-12-24T13:17:20.481Z,51.70
2022-12-24T13:20:26.447Z,51.70
2022-12-24T13:23:00.622Z,52.00
2022-12-24T13:25:36.002Z,52.20
2022-12-24T13:28:19.395Z,52.40
2022-12-24T13:30:51.570Z,52.30
2022-12-24T13:33:58.914Z,52.20
2022-12-24T13:36:48.261Z,52.10
2022-12-24T13:39:21.669Z,52.20
2022-12-24T13:41:54.094Z,52.50
2022-12-24T13:44:33.067Z,52.60
2022-12-24T13:47:07.003Z,52.70
2022-12-24T13:49:38.838Z,52.80
2022-12-24T13:52:19.735Z,52.80
2022-12-24T13:55:03.371Z,52.90
2022-12-24T13:57:37.291Z,52.80
2022-12-24T14:00:10.562Z,52.90
2022-12-24T14:02:50.345Z,52.90
2022-12-24T14:05:26.447Z,53.10
2022-12-24T14:07:57.851Z,53.00
2022-12-24T14:10:30.228Z,53.10
2022-12-24T14:12:59.312Z,53.20
2022-12-24T14:15:47.094Z,53.40
2022-12-24T14:18:21.749Z,53.40
2022-12-24T14:20:52.286Z,53.60
2022-12-24T14:23:31.543Z,53.70
2022-12-24T14:26:03.789Z,54.00
2022-12-24T14:28:38.743Z,54.30
2022-12-24T14:31:15.685Z,54.70
2022-12-24T14:33:46.702Z,54.90
2022-12-24T14:36:20.870Z,55.10
2022-12-24T14:38:50.430Z,55.40
2022-12-24T14:41:34.692Z,55.70
2022-12-24T14:44:15.602Z,56.00
2022-12-24T14:46:51.091Z,56.40
2022-12-24T14:49:34.179Z,56.70
2022-12-24T14:52:37.622Z,57.00
2022-12-24T14:55:02.512Z,57.30
2022-12-24T14:57:31.589Z,57.50
2022-12-24T15:00:02.437Z,57.70
2022-12-24T15:02:42.097Z,58.00
2022-12-24T15:05:16.525Z,58.30
2022-12-24T15:07:49.550Z,58.50
2022-12-24T15:10:29.547Z,58.70
2022-12-24T15:13:03.063Z,59.00
2022-12-24T15:15:32.935Z,59.20
2022-12-24T15:18:03.731Z,59.40
2022-12-24T15:20:34.597Z,59.70
2022-12-24T15:23:24.405Z,60.00
2022-12-24T15:25:54.235Z,60.20
2022-12-24T15:28:25.704Z,60.50
2022-12-24T15:31:09.359Z,60.80
2022-12-24T15:33:38.998Z,61.20
2022-12-24T15:36:11.488Z,61.50
2022-12-24T15:39:02.312Z,61.70
2022-12-24T15:41:38.330Z,62.10
2022-12-24T15:44:07.688Z,62.30
2022-12-24T15:46:36.926Z,62.50
2022-12-24T15:49:06.321Z,62.70
2022-12-24T15:51:40.114Z,62.90
2022-12-24T15:54:15.253Z,63.30
2022-12-24T15:56:46.226Z,63.40
2022-12-24T15:59:29.457Z,63.60
2022-12-24T16:01:58.914Z,63.90
2022-12-24T16:04:47.081Z,64.00
2022-12-24T16:07:47.754Z,64.20
2022-12-24T16:10:26.324Z,64.50
2022-12-24T16:12:55.397Z,64.90
2022-12-24T16:15:24.642Z,65.00
2022-12-24T16:17:54.885Z,65.90
2022-12-24T16:20:24.435Z,65.50
2022-12-24T16:22:55.776Z,65.70
2022-12-24T16:25:27.362Z,65.90
2022-12-24T16:28:00.306Z,66.20
2022-12-24T16:30:30.131Z,66.40
2022-12-24T16:32:59.319Z,66.40
2022-12-24T16:35:30.483Z,66.70
2022-12-24T16:38:01.157Z,67.00
2022-12-24T16:40:49.257Z,67.20
2022-12-24T16:43:35.759Z,68.40
2022-12-24T16:46:08.596Z,68.70
2022-12-24T16:48:40.200Z,69.00
2022-12-24T16:51:09.360Z,69.20
2022-12-24T16:53:40.142Z,69.50
2022-12-24T16:56:09.726Z,69.80
2022-12-24T16:58:39.067Z,70.00
2022-12-24T17:01:10.685Z,70.30
2022-12-24T17:03:39.893Z,70.60
2022-12-24T17:06:09.533Z,70.80
2022-12-24T17:08:40.233Z,71.00
2022-12-24T17:11:09.205Z,71.40
2022-12-24T17:13:38.484Z,71.60
2022-12-24T17:16:08.632Z,71.70
2022-12-24T17:18:37.776Z,71.90
2022-12-24T17:21:07.281Z,72.10
2022-12-24T17:23:36.379Z,72.30
2022-12-24T17:26:13.063Z,72.60
2022-12-24T17:28:44.347Z,72.80
2022-12-24T17:31:16.551Z,73.00
2022-12-24T17:33:46.272Z,73.20
2022-12-24T17:36:15.209Z,73.30
2022-12-24T17:38:44.580Z,73.50
2022-12-24T17:41:17.024Z,73.60
2022-12-24T17:43:46.223Z,73.70
2022-12-24T17:46:17.726Z,73.70
2022-12-24T17:48:46.960Z,73.90
2022-12-24T17:51:19.093Z,74.00
2022-12-24T17:53:48.513Z,74.00
2022-12-24T17:56:19.589Z,74.00
2022-12-24T17:58:48.733Z,73.90
2022-12-24T18:01:20.663Z,74.00
2022-12-24T18:03:52.022Z,73.80
2022-12-24T18:06:21.972Z,74.00
2022-12-24T18:08:51.212Z,74.10
2022-12-24T18:11:23.917Z,74.00
2022-12-24T18:13:53.827Z,74.10
2022-12-24T18:16:24.679Z,74.20
2022-12-24T18:18:54.615Z,74.20
2022-12-24T18:21:26.691Z,74.20
2022-12-24T18:23:56.858Z,74.00
2022-12-24T18:26:30.175Z,74.10
2022-12-24T18:29:00.484Z,74.30
2022-12-24T18:31:30.069Z,74.60
2022-12-24T18:33:59.280Z,74.70
2022-12-24T18:36:28.348Z,75.00
2022-12-24T18:38:57.664Z,75.10
2022-12-24T18:41:30.768Z,75.30
2022-12-24T18:44:01.184Z,75.40
2022-12-24T18:46:34.170Z,75.70
2022-12-24T18:49:03.981Z,76.10
2022-12-24T18:51:35.593Z,76.30
2022-12-24T18:54:05.483Z,76.60
2022-12-24T18:56:36.031Z,76.80
2022-12-24T18:59:05.485Z,77.00
2022-12-24T19:01:36.303Z,77.20
2022-12-24T19:04:05.809Z,77.40
2022-12-24T19:06:34.760Z,77.60
2022-12-24T19:09:04.184Z,78.00
2022-12-24T19:11:37.158Z,78.10
2022-12-24T19:14:08.152Z,78.30
2022-12-24T19:16:39.873Z,78.40
2022-12-24T19:19:12.485Z,78.70
2022-12-24T19:21:41.624Z,78.60
2022-12-24T19:24:10.926Z,78.70
2022-12-24T19:26:41.499Z,78.90
2022-12-24T19:29:10.611Z,79.10
2022-12-24T19:31:39.933Z,79.10
2022-12-24T19:34:09.225Z,79.40
2022-12-24T19:36:38.418Z,79.80
2022-12-24T19:39:07.915Z,80.40
2022-12-24T19:41:38.568Z,80.90
2022-12-24T19:44:09.380Z,81.10
2022-12-24T19:46:57.102Z,81.20
2022-12-24T19:49:26.089Z,81.50
2022-12-24T19:51:55.896Z,81.60
2022-12-24T19:54:24.861Z,81.60
2022-12-24T19:56:53.847Z,81.50
2022-12-24T19:59:24.377Z,81.20
2022-12-24T20:01:54.530Z,81.20
2022-12-24T20:04:24.031Z,81.20
2022-12-24T20:06:59.723Z,81.00
2022-12-24T20:09:31.685Z,81.00
2022-12-24T20:12:01.307Z,81.10
2022-12-24T20:14:32.239Z,81.10
2022-12-24T20:17:02.299Z,81.20
2022-12-24T20:19:50.804Z,81.40
2022-12-24T20:22:19.896Z,81.60
2022-12-24T20:24:49.072Z,81.70
2022-12-24T20:27:18.119Z,81.90
2022-12-24T20:29:48.812Z,82.20
2022-12-24T20:32:18.133Z,82.50
2022-12-24T20:34:47.364Z,82.80
2022-12-24T20:37:16.511Z,82.90
2022-12-24T20:39:45.795Z,83.10
2022-12-24T20:42:15.920Z,83.30
2022-12-24T20:44:45.087Z,83.60
2022-12-24T20:47:15.936Z,83.70
2022-12-24T20:49:45.188Z,84.00
2022-12-24T20:52:14.344Z,84.20
2022-12-24T20:54:43.836Z,84.40
2022-12-24T20:57:13.689Z,84.70
2022-12-24T20:59:42.742Z,84.90
2022-12-24T21:02:15.208Z,85.10
2022-12-24T21:04:44.578Z,85.20
2022-12-24T21:07:14.614Z,85.30
2022-12-24T21:09:43.938Z,85.50
2022-12-24T21:12:30.657Z,85.70
2022-12-24T21:14:59.903Z,85.80
2022-12-24T21:17:30.653Z,86.00
2022-12-24T21:20:00.817Z,86.20
2022-12-24T21:22:30.177Z,86.30
2022-12-24T21:25:00.157Z,86.30
2022-12-24T21:27:30.744Z,86.20
2022-12-24T21:29:59.941Z,86.30
2022-12-24T21:32:30.890Z,86.40
2022-12-24T21:35:00.251Z,86.50
2022-12-24T21:37:29.632Z,86.70
2022-12-24T21:39:58.651Z,86.70
2022-12-24T21:42:27.984Z,86.70
2022-12-24T21:44:57.307Z,86.70
2022-12-24T21:47:26.379Z,86.70
2022-12-24T21:50:14.236Z,86.50
2022-12-24T21:52:43.373Z,86.30
2022-12-24T21:55:11.578Z,86.30
2022-12-24T21:57:56.103Z,87.10
2022-12-24T22:00:27.177Z,86.40
2022-12-24T22:02:59.247Z,86.50
2022-12-24T22:05:30.171Z,86.30
2022-12-24T22:08:16.548Z,86.10
2022-12-24T22:11:02.647Z,85.90
2022-12-24T22:13:32.382Z,85.70
2022-12-24T22:16:01.759Z,85.70
2022-12-24T22:18:31.236Z,85.60
2022-12-24T22:21:03.549Z,85.50
2022-12-24T22:23:35.926Z,85.60
2022-12-24T22:26:13.242Z,85.70
2022-12-24T22:28:42.709Z,85.70
2022-12-24T22:31:19.381Z,85.70
2022-12-24T22:33:48.706Z,85.70
2022-12-24T22:36:19.554Z,85.70
2022-12-24T22:38:48.811Z,85.90
2022-12-24T22:41:18.569Z,86.10
2022-12-24T22:43:47.676Z,86.30
2022-12-24T22:46:16.870Z,86.40
2022-12-24T22:48:47.152Z,86.40
2022-12-24T22:51:17.903Z,86.40
2022-12-24T22:53:48.728Z,86.40
2022-12-24T22:56:20.365Z,86.40
2022-12-24T22:58:50.046Z,86.50
2022-12-24T23:01:19.291Z,86.50
2022-12-24T23:03:48.414Z,86.40
2022-12-24T23:06:17.363Z,86.40
2022-12-24T23:08:47.934Z,86.40
2022-12-24T23:11:17.487Z,86.50
2022-12-24T23:14:04.330Z,86.30
2022-12-24T23:16:34.005Z,86.10
2022-12-24T23:19:04.702Z,85.80
2022-12-24T23:21:34.461Z,85.60
2022-12-24T23:24:05.982Z,85.40
2022-12-24T23:26:36.072Z,85.40
2022-12-24T23:29:05.235Z,85.30
2022-12-24T23:31:35.304Z,85.60
2022-12-24T23:34:04.587Z,86.00
2022-12-24T23:36:33.653Z,86.10
2022-12-24T23:39:05.242Z,86.20
2022-12-24T23:41:35.051Z,86.10
2022-12-24T23:44:09.075Z,86.10
2022-12-24T23:46:56.596Z,86.00
2022-12-24T23:49:25.901Z,85.50
2022-12-24T23:51:55.068Z,85.40
2022-12-24T23:54:25.574Z,85.50
2022-12-24T23:56:54.826Z,85.60
2022-12-24T23:59:23.985Z,85.70
